createdAt,value
2018-09-12T12:17:35.491Z,3340.00
2018-09-12T12:18:35.462Z,3308.00
2018-09-12T12:19:35.455Z,3312.00
2018-09-12T12:20:35.442Z,3336.00
2018-09-12T12:21:35.443Z,3336.00
2018-09-12T12:22:35.721Z,3348.00
2018-09-12T12:23:35.420Z,3352.00
2018-09-12T12:24:35.397Z,3356.00
2018-09-12T12:25:35.398Z,3352.00
2018-09-12T12:26:35.376Z,3356.00
2018-09-12T12:27:35.522Z,3356.00
2018-09-12T12:28:35.360Z,3360.00
2018-09-12T12:29:35.646Z,3368.00
2018-09-12T12:30:35.335Z,3376.00
2018-09-12T12:31:35.330Z,3384.00
2018-09-12T12:32:35.353Z,3388.00
2018-09-12T12:33:35.307Z,3392.00
2018-09-12T12:34:35.293Z,3392.00
2018-09-12T12:35:35.590Z,3388.00
2018-09-12T12:36:35.277Z,3392.00
2018-09-12T12:37:35.493Z,3412.00
2018-09-12T12:38:35.254Z,3420.00
2018-09-12T12:39:35.248Z,3420.00
2018-09-12T12:40:35.229Z,3432.00
2018-09-12T12:41:35.220Z,3452.00
2018-09-12T12:42:35.324Z,3468.00
2018-09-12T12:43:35.198Z,3484.00
2018-09-12T12:44:35.507Z,3496.00
2018-09-12T12:45:35.181Z,3516.00
2018-09-12T12:46:35.169Z,3524.00
2018-09-12T12:47:56.171Z,3532.00
2018-09-12T12:48:35.500Z,3540.00
2018-09-12T12:49:35.141Z,3572.00
2018-09-12T12:50:35.645Z,3572.00
2018-09-12T12:51:35.293Z,3560.00
2018-09-12T12:52:35.611Z,3552.00
2018-09-12T12:53:35.564Z,3548.00
2018-09-12T12:54:35.094Z,3520.00
2018-09-12T12:55:35.337Z,3492.00
2018-09-12T12:56:35.476Z,3500.00
2018-09-12T12:57:56.544Z,3492.00
2018-09-12T12:58:35.047Z,3492.00
2018-09-12T12:59:35.032Z,3488.00
2018-09-12T13:00:35.509Z,3500.00
2018-09-12T13:01:35.321Z,3512.00
2018-09-12T13:02:35.957Z,3532.00
2018-09-12T13:03:34.999Z,3560.00
2018-09-12T13:04:35.062Z,3572.00
2018-09-12T13:05:34.982Z,3600.00
2018-09-12T13:06:34.958Z,3624.00
2018-09-12T13:07:35.091Z,3596.00
2018-09-12T13:08:34.941Z,3592.00
2018-09-12T13:09:34.928Z,3568.00
2018-09-12T13:10:34.971Z,3540.00
2018-09-12T13:11:34.918Z,3516.00
2018-09-12T13:12:55.899Z,3496.00
2018-09-12T13:13:34.890Z,3484.00
2018-09-12T13:14:34.923Z,3476.00
2018-09-12T13:15:34.868Z,3468.00
2018-09-12T13:16:34.857Z,3464.00
2018-09-12T13:17:35.079Z,3452.00
2018-09-12T13:18:34.837Z,3440.00
2018-09-12T13:19:34.829Z,3428.00
2018-09-12T13:20:34.818Z,3436.00
2018-09-12T13:21:34.888Z,3436.00
2018-09-12T13:22:34.891Z,3452.00
2018-09-12T13:23:34.789Z,3476.00
2018-09-12T13:24:34.779Z,3488.00
2018-09-12T13:25:34.772Z,3512.00
2018-09-12T13:26:34.758Z,3544.00
2018-09-12T13:27:35.055Z,3564.00
2018-09-12T13:28:34.735Z,3592.00
2018-09-12T13:29:34.729Z,3600.00
2018-09-12T13:30:34.717Z,3620.00
2018-09-12T13:31:35.588Z,3636.00
2018-09-12T13:32:55.700Z,3652.00
2018-09-12T13:33:34.690Z,3652.00
2018-09-12T13:34:34.972Z,3648.00
2018-09-12T13:35:34.671Z,3636.00
2018-09-12T13:36:35.887Z,3620.00
2018-09-12T13:37:55.650Z,3616.00
2018-09-12T13:38:34.939Z,3604.00
2018-09-12T13:39:34.626Z,3612.00
2018-09-12T13:40:34.622Z,3608.00
2018-09-12T13:41:34.913Z,3600.00
2018-09-12T13:42:34.830Z,3592.00
2018-09-12T13:43:35.134Z,3584.00
2018-09-12T13:44:35.119Z,3584.00
2018-09-12T13:45:35.322Z,3584.00
2018-09-12T13:46:35.102Z,3580.00
2018-09-12T13:47:34.971Z,3564.00
2018-09-12T13:48:34.834Z,3552.00
2018-09-12T13:49:35.380Z,3544.00
2018-09-12T13:50:34.719Z,3532.00
2018-09-12T13:51:34.806Z,3520.00
2018-09-12T13:52:55.498Z,3516.00
2018-09-12T13:53:35.093Z,3504.00
2018-09-12T13:54:35.093Z,3512.00
2018-09-12T13:55:34.761Z,3524.00
2018-09-12T13:56:35.148Z,3512.00
2018-09-12T13:57:34.630Z,3492.00
2018-09-12T13:58:35.091Z,3468.00
2018-09-12T13:59:35.100Z,3452.00
2018-09-12T14:00:35.091Z,3460.00
2018-09-12T14:01:34.546Z,3464.00
2018-09-12T14:02:34.463Z,3488.00
2018-09-12T14:03:34.373Z,3484.00
2018-09-12T14:04:34.419Z,3488.00
2018-09-12T14:05:34.476Z,3492.00
2018-09-12T14:06:34.645Z,3508.00
2018-09-12T14:07:34.605Z,3532.00
2018-09-12T14:08:34.405Z,3548.00
2018-09-12T14:09:34.618Z,3556.00
2018-09-12T14:10:34.386Z,3564.00
2018-09-12T14:11:34.287Z,3568.00
2018-09-12T14:12:34.442Z,3572.00
2018-09-12T14:13:35.066Z,3564.00
2018-09-12T14:14:35.065Z,3568.00
2018-09-12T14:15:34.557Z,3584.00
2018-09-12T14:16:34.548Z,3604.00
2018-09-12T14:17:34.264Z,3636.00
2018-09-12T14:18:34.531Z,3660.00
2018-09-12T14:19:35.158Z,3684.00
2018-09-12T14:20:35.068Z,3708.00
2018-09-12T14:21:35.073Z,3724.00
2018-09-12T14:22:34.455Z,3736.00
2018-09-12T14:23:35.067Z,3740.00
2018-09-12T14:24:35.069Z,3752.00
2018-09-12T14:25:35.068Z,3764.00
2018-09-12T14:26:35.165Z,3772.00
2018-09-12T14:27:35.464Z,3780.00
2018-09-12T14:28:35.068Z,3788.00
2018-09-12T14:29:35.069Z,3780.00
2018-09-12T14:30:34.404Z,3780.00
2018-09-12T14:31:35.068Z,3780.00
2018-09-12T14:32:34.663Z,3792.00
2018-09-12T14:33:34.570Z,3804.00
2018-09-12T14:34:34.569Z,3828.00
2018-09-12T14:35:34.569Z,3856.00
2018-09-12T14:36:34.577Z,3880.00
2018-09-12T14:37:34.202Z,3920.00
2018-09-12T14:38:34.570Z,3960.00
2018-09-12T14:39:34.638Z,3980.00
2018-09-12T14:40:34.006Z,4012.00
2018-09-12T14:41:33.992Z,4052.00
2018-09-12T14:42:34.032Z,4080.00
2018-09-12T14:43:33.956Z,4116.00
2018-09-12T14:44:33.946Z,4152.00
2018-09-12T14:45:33.951Z,4180.00
2018-09-12T14:46:34.572Z,4184.00
2018-09-12T14:47:34.175Z,4208.00
2018-09-12T14:48:33.905Z,4256.00
2018-09-12T14:49:33.895Z,4252.00
2018-09-12T14:50:33.887Z,4256.00
2018-09-12T14:51:33.874Z,4276.00
2018-09-12T14:52:34.008Z,4300.00
2018-09-12T14:53:33.854Z,4328.00
2018-09-12T14:54:33.843Z,4356.00
2018-09-12T14:55:33.832Z,4392.00
2018-09-12T14:56:33.821Z,4416.00
2018-09-12T14:57:34.219Z,4464.00
2018-09-12T14:58:33.804Z,4520.00
2018-09-12T14:59:33.791Z,4576.00
2018-09-12T15:00:33.781Z,4640.00
2018-09-12T15:01:33.770Z,4684.00
2018-09-12T15:02:33.970Z,4724.00
2018-09-12T15:03:33.752Z,4764.00
2018-09-12T15:04:33.743Z,4812.00
2018-09-12T15:05:33.779Z,4860.00
2018-09-12T15:06:33.719Z,4904.00
2018-09-12T15:07:33.802Z,12724.00
2018-09-12T15:08:33.702Z,36544.00
2018-09-12T15:09:33.690Z,46784.00
2018-09-12T15:10:33.782Z,46432.00
2018-09-12T15:11:33.674Z,46752.00
2018-09-12T15:12:33.940Z,45856.00
2018-09-12T15:13:33.648Z,46624.00
2018-09-12T15:14:33.638Z,45984.00
2018-09-12T15:15:33.634Z,45664.00
2018-09-12T15:16:33.621Z,45280.00
2018-09-12T15:17:33.605Z,46080.00
2018-09-12T15:18:33.679Z,44160.00
2018-09-12T15:19:33.587Z,42624.00
2018-09-12T15:20:33.576Z,43040.00
2018-09-12T15:21:33.568Z,42624.00
2018-09-12T15:22:34.079Z,42432.00
2018-09-12T15:23:33.814Z,42464.00
2018-09-12T15:24:33.538Z,42080.00
2018-09-12T15:25:33.527Z,41664.00
2018-09-12T15:26:33.844Z,41152.00
2018-09-12T15:27:33.507Z,39968.00
2018-09-12T15:28:34.566Z,39808.00
2018-09-12T15:29:33.489Z,39808.00
2018-09-12T15:30:33.478Z,39776.00
2018-09-12T15:31:33.469Z,39680.00
2018-09-12T15:32:33.525Z,26816.00
2018-09-12T15:33:33.784Z,7268.00
2018-09-12T15:34:33.439Z,5492.00
2018-09-12T15:35:33.428Z,5480.00
2018-09-12T15:36:33.419Z,5572.00
2018-09-12T15:37:33.409Z,18112.00
2018-09-12T15:38:33.616Z,34336.00
2018-09-12T15:39:33.389Z,34656.00
2018-09-12T15:40:33.379Z,34048.00
2018-09-12T15:41:33.454Z,33792.00
2018-09-12T15:42:33.358Z,33248.00
2018-09-12T15:43:33.446Z,32896.00
2018-09-12T15:44:33.339Z,32768.00
2018-09-12T15:45:33.330Z,32352.00
2018-09-12T15:46:33.326Z,32192.00
2018-09-12T15:47:33.313Z,31712.00
2018-09-12T15:48:33.587Z,24640.00
2018-09-12T15:49:33.290Z,9740.00
2018-09-12T15:50:33.279Z,6504.00
2018-09-12T15:51:33.274Z,6572.00
2018-09-12T15:52:33.262Z,6672.00
2018-09-12T15:53:33.414Z,7752.00
2018-09-12T15:54:34.080Z,6968.00
2018-09-12T15:55:33.229Z,13916.00
2018-09-12T15:56:33.221Z,23808.00
2018-09-12T15:57:33.212Z,27360.00
2018-09-12T15:58:33.258Z,26784.00
2018-09-12T15:59:33.193Z,26208.00
2018-09-12T16:00:33.188Z,25696.00
2018-09-12T16:01:33.171Z,25120.00
2018-09-12T16:02:33.159Z,22656.00
2018-09-12T16:03:33.391Z,14848.00
2018-09-12T16:04:33.140Z,7948.00
2018-09-12T16:05:33.132Z,8504.00
2018-09-12T16:06:33.121Z,15296.00
2018-09-12T16:07:33.111Z,21568.00
2018-09-12T16:08:33.216Z,22016.00
2018-09-12T16:09:33.092Z,21408.00
2018-09-12T16:10:33.080Z,20864.00
2018-09-12T16:11:33.076Z,20512.00
2018-09-12T16:12:33.060Z,20192.00
2018-09-12T16:13:33.354Z,19904.00
2018-09-12T16:14:33.041Z,19520.00
2018-09-12T16:15:33.088Z,17376.00
2018-09-12T16:16:33.022Z,11580.00
2018-09-12T16:17:33.014Z,7348.00
2018-09-12T16:18:33.194Z,7376.00
2018-09-12T16:19:32.993Z,10732.00
2018-09-12T16:20:32.982Z,12960.00
2018-09-12T16:21:32.974Z,12960.00
2018-09-12T16:22:32.965Z,13248.00
2018-09-12T16:23:33.016Z,12448.00
2018-09-12T16:24:32.943Z,13152.00
2018-09-12T16:25:32.953Z,13024.00
2018-09-12T16:26:32.924Z,11684.00
2018-09-12T16:27:32.916Z,9620.00
2018-09-12T16:28:33.155Z,9820.00
2018-09-12T16:29:32.893Z,10844.00
2018-09-12T16:30:32.886Z,11004.00
2018-09-12T16:31:32.874Z,8420.00
2018-09-12T16:32:32.868Z,5988.00
2018-09-12T16:33:32.991Z,5848.00
2018-09-12T16:34:32.844Z,6324.00
2018-09-12T16:35:32.831Z,8556.00
2018-09-12T16:36:32.824Z,10500.00
2018-09-12T16:37:32.817Z,10420.00
2018-09-12T16:38:33.131Z,8860.00
2018-09-12T16:39:32.796Z,7424.00
2018-09-12T16:40:32.783Z,6808.00
2018-09-12T16:41:32.774Z,6240.00
2018-09-12T16:42:33.589Z,5316.00
2018-09-12T16:43:32.957Z,5168.00
2018-09-12T16:44:32.744Z,5056.00
2018-09-12T16:45:32.732Z,4852.00
2018-09-12T16:46:32.725Z,4636.00
2018-09-12T16:47:32.714Z,4532.00
2018-09-12T16:48:32.791Z,4388.00
2018-09-12T16:49:32.698Z,4272.00
2018-09-12T16:50:32.688Z,4136.00
2018-09-12T16:51:32.732Z,3980.00
2018-09-12T16:52:32.663Z,3832.00
2018-09-12T16:53:32.652Z,3688.00
2018-09-12T16:54:34.981Z,3528.00
2018-09-12T16:55:32.633Z,3352.00
2018-09-12T16:56:32.754Z,3180.00
2018-09-12T16:57:32.614Z,3032.00
2018-09-12T16:58:32.601Z,2892.00
2018-09-12T16:59:32.661Z,2756.00
2018-09-12T17:00:32.749Z,2748.00
2018-09-12T17:01:33.097Z,2596.00
2018-09-12T17:02:32.573Z,2440.00
2018-09-12T17:03:32.878Z,2288.00
2018-09-12T17:04:32.800Z,2164.00
2018-09-12T17:05:32.531Z,2052.00
2018-09-12T17:06:33.138Z,1948.00
2018-09-12T17:07:32.507Z,1844.00
2018-09-12T17:08:32.501Z,1740.00
2018-09-12T17:09:32.630Z,1644.00
2018-09-12T17:10:32.837Z,1560.00
2018-09-12T17:11:32.796Z,1484.00
2018-09-12T17:12:32.457Z,1424.00
2018-09-12T17:13:32.446Z,1364.00
2018-09-12T17:14:32.797Z,1300.00
2018-09-12T17:15:32.424Z,1232.00
2018-09-12T17:16:32.744Z,1160.00
2018-09-12T17:17:32.405Z,1088.00
2018-09-12T17:18:32.398Z,1020.00
2018-09-12T17:19:32.693Z,956.00
2018-09-12T17:20:32.379Z,892.00
2018-09-12T17:21:32.694Z,836.00
2018-09-12T17:22:32.354Z,780.00
2018-09-12T17:23:32.346Z,728.00
2018-09-12T17:24:32.711Z,684.00
2018-09-12T17:25:32.325Z,640.00
2018-09-12T17:26:33.097Z,604.00
2018-09-12T17:27:33.107Z,564.00
2018-09-12T17:28:32.293Z,532.00
2018-09-12T17:29:32.659Z,496.00
2018-09-12T17:30:32.270Z,460.00
2018-09-12T17:31:33.100Z,428.00
2018-09-12T17:32:32.709Z,392.00
2018-09-12T17:33:32.239Z,352.00
2018-09-12T17:34:32.464Z,320.00
2018-09-12T17:35:32.218Z,288.00
2018-09-12T17:36:32.208Z,260.00
2018-09-12T17:37:33.149Z,232.00
2018-09-12T17:38:32.191Z,208.00
2018-09-12T17:39:32.564Z,188.00
2018-09-12T17:40:32.164Z,164.00
2018-09-12T17:41:32.154Z,148.00
2018-09-12T17:42:32.168Z,132.00
2018-09-12T17:43:32.133Z,116.00
2018-09-12T17:44:32.130Z,100.00
2018-09-12T17:45:32.401Z,88.00
2018-09-12T17:46:32.103Z,76.00
2018-09-12T17:47:32.098Z,64.00
2018-09-12T17:48:32.081Z,56.00
2018-09-12T17:49:32.069Z,48.00
2018-09-12T17:50:32.469Z,40.00
2018-09-12T17:51:32.055Z,36.00
2018-09-12T17:52:32.366Z,32.00
2018-09-12T17:53:32.027Z,28.00
2018-09-12T17:54:32.019Z,24.00
2018-09-12T17:55:32.297Z,16.00
2018-09-12T17:56:32.007Z,16.00
2018-09-12T17:57:31.989Z,12.00
2018-09-12T17:58:32.001Z,12.00
2018-09-12T17:59:31.970Z,8.00
2018-09-12T18:00:32.117Z,8.00
2018-09-12T18:01:31.947Z,8.00
2018-09-12T18:02:32.290Z,4.00
2018-09-12T18:03:32.287Z,4.00
2018-09-12T18:04:31.916Z,4.00
2018-09-12T18:05:32.321Z,0.00
2018-09-12T18:06:31.886Z,4.00
2018-09-12T18:07:31.880Z,4.00
2018-09-12T18:08:31.909Z,0.00
2018-09-12T18:09:31.864Z,0.00
2018-09-12T18:10:32.179Z,0.00
2018-09-12T18:11:31.835Z,0.00
2018-09-12T18:12:31.822Z,0.00
2018-09-12T18:13:31.814Z,0.00
2018-09-12T18:14:31.801Z,0.00
2018-09-12T18:15:32.633Z,0.00
2018-09-12T18:16:32.151Z,0.00
2018-09-12T18:17:31.818Z,0.00
2018-09-12T18:18:32.132Z,0.00
2018-09-12T18:19:31.749Z,0.00
2018-09-12T18:20:32.011Z,0.00
2018-09-12T18:21:32.103Z,0.00
2018-09-12T18:22:31.725Z,0.00
2018-09-12T18:23:32.641Z,0.00
2018-09-12T18:24:31.720Z,0.00
2018-09-12T18:25:31.842Z,0.00
2018-09-12T18:26:31.734Z,0.00
2018-09-12T18:27:31.693Z,0.00
2018-09-12T18:28:31.658Z,0.00
2018-09-12T18:29:31.644Z,0.00
2018-09-12T18:30:32.045Z,0.00
2018-09-12T18:31:31.675Z,0.00
2018-09-12T18:32:31.666Z,0.00
2018-09-12T18:33:31.605Z,0.00
2018-09-12T18:34:31.597Z,0.00
2018-09-12T18:35:31.810Z,0.00
2018-09-12T18:36:31.588Z,0.00
2018-09-12T18:37:31.567Z,0.00
2018-09-12T18:38:31.576Z,0.00
2018-09-12T18:39:32.185Z,0.00
2018-09-12T18:40:31.948Z,0.00
2018-09-12T18:41:31.541Z,0.00
2018-09-12T18:42:31.516Z,0.00
2018-09-12T18:43:31.499Z,0.00
2018-09-12T18:44:31.514Z,0.00
2018-09-12T18:45:31.780Z,0.00
2018-09-12T18:46:31.513Z,0.00
2018-09-12T18:47:31.514Z,0.00
2018-09-12T18:48:31.447Z,0.00
2018-09-12T18:49:31.443Z,0.00
2018-09-12T18:50:31.610Z,0.00
2018-09-12T18:51:31.414Z,0.00
2018-09-12T18:52:31.403Z,0.00
2018-09-12T18:53:31.422Z,0.00
2018-09-12T18:54:31.382Z,0.00
2018-09-12T18:55:31.442Z,0.00
2018-09-12T18:56:31.367Z,0.00
2018-09-12T18:57:31.350Z,0.00
2018-09-12T18:58:31.362Z,0.00
2018-09-12T18:59:31.332Z,0.00
2018-09-12T19:00:31.677Z,0.00
2018-09-12T19:01:31.309Z,0.00
2018-09-12T19:02:31.306Z,0.00
2018-09-12T19:03:31.287Z,0.00
2018-09-12T19:04:31.276Z,0.00
2018-09-12T19:05:31.417Z,0.00
2018-09-12T19:06:31.324Z,0.00
2018-09-12T19:07:31.250Z,0.00
2018-09-12T19:08:32.206Z,0.00
2018-09-12T19:09:31.225Z,0.00
2018-09-12T19:10:32.471Z,0.00
2018-09-12T19:11:31.220Z,0.00
2018-09-12T19:12:31.190Z,0.00
2018-09-12T19:13:31.185Z,0.00
2018-09-12T19:14:31.170Z,0.00
2018-09-12T19:15:31.384Z,0.00
2018-09-12T19:16:31.148Z,0.00
2018-09-12T19:17:31.138Z,0.00
2018-09-12T19:18:31.182Z,0.00
2018-09-12T19:19:31.119Z,0.00
2018-09-12T19:20:32.111Z,0.00
2018-09-12T19:21:31.096Z,0.00
2018-09-12T19:22:31.090Z,0.00
2018-09-12T19:23:31.075Z,0.00
2018-09-12T19:24:31.069Z,0.00
2018-09-12T19:25:31.355Z,0.00
2018-09-12T19:26:31.120Z,0.00
2018-09-12T19:27:31.031Z,0.00
2018-09-12T19:28:31.026Z,0.00
2018-09-12T19:29:31.011Z,0.00
2018-09-12T19:30:31.488Z,0.00
2018-09-12T19:31:30.992Z,0.00
2018-09-12T19:32:30.977Z,0.00
2018-09-12T19:33:30.970Z,0.00
2018-09-12T19:34:30.956Z,0.00
2018-09-12T19:35:31.019Z,0.00
2018-09-12T19:36:30.939Z,0.00
2018-09-12T19:37:30.923Z,0.00
2018-09-12T19:38:30.913Z,0.00
2018-09-12T19:39:30.903Z,0.00
2018-09-12T19:40:31.155Z,0.00
2018-09-12T19:41:30.884Z,0.00
2018-09-12T19:42:30.878Z,0.00
2018-09-12T19:43:30.860Z,0.00
2018-09-12T19:44:30.848Z,0.00
2018-09-12T19:45:30.998Z,0.00
2018-09-12T19:46:30.829Z,0.00
2018-09-12T19:47:30.817Z,0.00
2018-09-12T19:48:30.807Z,0.00
2018-09-12T19:49:30.796Z,0.00
2018-09-12T19:50:32.121Z,0.00
2018-09-12T19:51:30.836Z,0.00
2018-09-12T19:52:31.967Z,0.00
2018-09-12T19:53:30.753Z,0.00
2018-09-12T19:54:30.743Z,0.00
2018-09-12T19:55:30.953Z,0.00
2018-09-12T19:56:30.720Z,0.00
2018-09-12T19:57:30.728Z,0.00
2018-09-12T19:58:30.718Z,0.00
2018-09-12T19:59:30.851Z,0.00
2018-09-12T20:00:30.843Z,0.00
2018-09-12T20:01:30.667Z,0.00
2018-09-12T20:02:30.657Z,0.00
2018-09-12T20:03:30.646Z,0.00
2018-09-12T20:04:30.636Z,0.00
2018-09-12T20:05:30.924Z,0.00
2018-09-12T20:06:30.612Z,0.00
2018-09-12T20:07:30.745Z,0.00
2018-09-12T20:08:30.593Z,0.00
2018-09-12T20:09:30.583Z,0.00
2018-09-12T20:10:31.682Z,0.00
2018-09-12T20:11:30.560Z,0.00
2018-09-12T20:12:30.548Z,0.00
2018-09-12T20:13:30.542Z,0.00
2018-09-12T20:14:30.527Z,0.00
2018-09-12T20:15:30.608Z,0.00
2018-09-12T20:16:30.505Z,0.00
2018-09-12T20:17:30.504Z,0.00
2018-09-12T20:18:30.482Z,0.00
2018-09-12T20:19:30.483Z,0.00
2018-09-12T20:20:31.647Z,0.00
2018-09-12T20:21:30.506Z,0.00
2018-09-12T20:22:30.441Z,0.00
2018-09-12T20:23:30.544Z,0.00
2018-09-12T20:24:30.485Z,0.00
2018-09-12T20:25:30.557Z,0.00
2018-09-12T20:26:30.397Z,0.00
2018-09-12T20:27:30.395Z,0.00
2018-09-12T20:28:30.379Z,0.00
2018-09-12T20:29:30.366Z,0.00
2018-09-12T20:30:30.356Z,0.00
2018-09-12T20:31:30.595Z,0.00
2018-09-12T20:32:30.403Z,0.00
2018-09-12T20:33:30.344Z,0.00
2018-09-12T20:34:30.312Z,0.00
2018-09-12T20:35:30.342Z,0.00
2018-09-12T20:36:30.425Z,0.00
2018-09-12T20:37:30.333Z,0.00
2018-09-12T20:38:30.272Z,0.00
2018-09-12T20:39:30.259Z,0.00
2018-09-12T20:40:30.247Z,0.00
2018-09-12T20:41:30.563Z,0.00
2018-09-12T20:42:30.229Z,0.00
2018-09-12T20:43:30.216Z,0.00
2018-09-12T20:44:30.206Z,0.00
2018-09-12T20:45:30.233Z,0.00
2018-09-12T20:46:30.393Z,0.00
2018-09-12T20:47:30.174Z,0.00
2018-09-12T20:48:30.172Z,0.00
2018-09-12T20:49:30.155Z,0.00
2018-09-12T20:50:30.198Z,0.00
2018-09-12T20:51:30.225Z,0.00
2018-09-12T20:52:30.123Z,0.00
2018-09-12T20:53:30.115Z,0.00
2018-09-12T20:54:30.098Z,0.00
2018-09-12T20:55:30.089Z,0.00
2018-09-12T20:56:30.365Z,0.00
2018-09-12T20:57:30.065Z,0.00
2018-09-12T20:58:30.054Z,0.00
2018-09-12T20:59:30.051Z,0.00
2018-09-12T21:00:30.034Z,0.00
2018-09-12T21:01:30.206Z,0.00
2018-09-12T21:02:30.012Z,0.00
2018-09-12T21:03:30.001Z,0.00
2018-09-12T21:04:29.989Z,0.00
2018-09-12T21:05:29.984Z,0.00
2018-09-12T21:06:30.026Z,0.00
2018-09-12T21:07:29.959Z,0.00
2018-09-12T21:08:29.948Z,0.00
2018-09-12T21:09:29.937Z,0.00
2018-09-12T21:10:29.926Z,0.00
2018-09-12T21:11:30.164Z,0.00
2018-09-12T21:12:29.904Z,0.00
2018-09-12T21:13:29.893Z,0.00
2018-09-12T21:14:29.883Z,0.00
2018-09-12T21:15:29.874Z,0.00
2018-09-12T21:16:29.996Z,0.00
2018-09-12T21:17:29.850Z,0.00
2018-09-12T21:18:29.846Z,0.00
2018-09-12T21:19:29.829Z,0.00
2018-09-12T21:20:29.823Z,0.00
2018-09-12T21:21:30.137Z,0.00
2018-09-12T21:22:29.797Z,0.00
2018-09-12T21:23:29.787Z,0.00
2018-09-12T21:24:29.777Z,0.00
2018-09-12T21:25:29.764Z,0.00
2018-09-12T21:26:29.973Z,0.00
2018-09-12T21:27:29.742Z,0.00
2018-09-12T21:28:29.730Z,0.00
2018-09-12T21:29:29.721Z,0.00
2018-09-12T21:30:29.718Z,0.00
2018-09-12T21:31:29.797Z,0.00
2018-09-12T21:32:29.688Z,0.00
2018-09-12T21:33:29.676Z,0.00
2018-09-12T21:34:29.665Z,0.00
2018-09-12T21:35:29.654Z,0.00
2018-09-12T21:36:29.943Z,0.00
2018-09-12T21:37:29.634Z,0.00
2018-09-12T21:38:29.621Z,0.00
2018-09-12T21:39:29.612Z,0.00
2018-09-12T21:40:29.603Z,0.00
2018-09-12T21:41:29.764Z,0.00
2018-09-12T21:42:29.578Z,0.00
2018-09-12T21:43:29.567Z,0.00
2018-09-12T21:44:29.560Z,0.00
2018-09-12T21:45:29.546Z,0.00
2018-09-12T21:46:29.598Z,0.00
2018-09-12T21:47:29.527Z,0.00
2018-09-12T21:48:29.514Z,0.00
2018-09-12T21:49:29.506Z,0.00
2018-09-12T21:50:29.492Z,0.00
2018-09-12T21:51:29.736Z,0.00
2018-09-12T21:52:29.474Z,0.00
2018-09-12T21:53:29.460Z,0.00
2018-09-12T21:54:29.449Z,0.00
2018-09-12T21:55:29.439Z,0.00
2018-09-12T21:56:29.566Z,0.00
2018-09-12T21:57:29.419Z,0.00
2018-09-12T21:58:29.405Z,0.00
2018-09-12T21:59:29.394Z,0.00
2018-09-12T22:00:29.383Z,0.00
2018-09-12T22:01:29.704Z,0.00
2018-09-12T22:02:29.364Z,0.00
2018-09-12T22:03:29.351Z,0.00
2018-09-12T22:04:29.340Z,0.00
2018-09-12T22:05:29.333Z,0.00
2018-09-12T22:06:30.129Z,0.00
2018-09-12T22:07:29.322Z,0.00
2018-09-12T22:08:29.295Z,0.00
2018-09-12T22:09:29.286Z,0.00
2018-09-12T22:10:29.275Z,0.00
2018-09-12T22:11:29.368Z,0.00
2018-09-12T22:12:29.254Z,0.00
2018-09-12T22:13:29.244Z,0.00
2018-09-12T22:14:29.231Z,0.00
2018-09-12T22:15:29.220Z,0.00
2018-09-12T22:16:29.506Z,0.00
2018-09-12T22:17:29.203Z,0.00
2018-09-12T22:18:29.189Z,0.00
2018-09-12T22:19:29.175Z,0.00
2018-09-12T22:20:29.166Z,0.00
2018-09-12T22:21:29.340Z,0.00
2018-09-12T22:22:29.145Z,0.00
2018-09-12T22:23:29.139Z,0.00
2018-09-12T22:24:29.323Z,0.00
2018-09-12T22:25:29.112Z,0.00
2018-09-12T22:26:29.172Z,0.00
2018-09-12T22:27:29.090Z,0.00
2018-09-12T22:28:29.080Z,0.00
2018-09-12T22:29:29.066Z,0.00
2018-09-12T22:30:29.056Z,0.00
2018-09-12T22:31:29.316Z,0.00
2018-09-12T22:32:29.035Z,0.00
2018-09-12T22:33:29.025Z,0.00
2018-09-12T22:34:29.017Z,0.00
2018-09-12T22:35:29.002Z,0.00
2018-09-12T22:36:29.136Z,0.00
2018-09-12T22:37:28.983Z,0.00
2018-09-12T22:38:28.972Z,0.00
2018-09-12T22:39:28.965Z,0.00
2018-09-12T22:40:28.954Z,0.00
2018-09-12T22:41:30.198Z,0.00
2018-09-12T22:42:28.928Z,0.00
2018-09-12T22:43:28.921Z,0.00
2018-09-12T22:44:28.912Z,0.00
2018-09-12T22:45:28.898Z,0.00
2018-09-12T22:46:29.110Z,0.00
2018-09-12T22:47:28.877Z,0.00
2018-09-12T22:48:28.865Z,0.00
2018-09-12T22:49:28.855Z,0.00
2018-09-12T22:50:28.846Z,0.00
2018-09-12T22:51:28.945Z,0.00
2018-09-12T22:52:28.821Z,0.00
2018-09-12T22:53:28.811Z,0.00
2018-09-12T22:54:28.801Z,0.00
2018-09-12T22:55:28.792Z,0.00
2018-09-12T22:56:29.074Z,0.00
2018-09-12T22:57:28.777Z,0.00
2018-09-12T22:58:28.758Z,0.00
2018-09-12T22:59:28.752Z,0.00
2018-09-12T23:00:28.739Z,0.00
2018-09-12T23:01:28.907Z,0.00
2018-09-12T23:02:28.716Z,0.00
2018-09-12T23:03:28.712Z,0.00
2018-09-12T23:04:28.701Z,0.00
2018-09-12T23:05:28.684Z,0.00
2018-09-12T23:06:28.744Z,0.00
2018-09-12T23:07:28.664Z,0.00
2018-09-12T23:08:28.653Z,0.00
2018-09-12T23:09:28.653Z,0.00
2018-09-12T23:10:28.640Z,0.00
2018-09-12T23:11:28.881Z,0.00
2018-09-12T23:12:28.611Z,0.00
2018-09-12T23:13:28.600Z,0.00
2018-09-12T23:14:28.590Z,0.00
2018-09-12T23:15:28.587Z,0.00
2018-09-12T23:16:28.711Z,0.00
2018-09-12T23:17:28.561Z,0.00
2018-09-12T23:18:28.548Z,0.00
2018-09-12T23:19:28.537Z,0.00
2018-09-12T23:20:28.529Z,0.00
2018-09-12T23:21:28.852Z,0.00
2018-09-12T23:22:28.508Z,0.00
2018-09-12T23:23:28.495Z,0.00
2018-09-12T23:24:28.485Z,0.00
2018-09-12T23:25:28.474Z,0.00
2018-09-12T23:26:28.679Z,0.00
2018-09-12T23:27:28.452Z,0.00
2018-09-12T23:28:28.451Z,0.00
2018-09-12T23:29:28.435Z,0.00
2018-09-12T23:30:28.426Z,0.00
2018-09-12T23:31:28.509Z,0.00
2018-09-12T23:32:28.402Z,0.00
2018-09-12T23:33:28.392Z,0.00
2018-09-12T23:34:28.379Z,0.00
2018-09-12T23:35:28.369Z,0.00
2018-09-12T23:36:28.662Z,0.00
2018-09-12T23:37:28.345Z,0.00
2018-09-12T23:38:28.338Z,0.00
2018-09-12T23:39:28.327Z,0.00
2018-09-12T23:40:28.315Z,0.00
2018-09-12T23:41:28.478Z,0.00
2018-09-12T23:42:28.293Z,0.00
2018-09-12T23:43:28.281Z,0.00
2018-09-12T23:44:28.272Z,0.00
2018-09-12T23:45:28.262Z,0.00
2018-09-12T23:46:28.308Z,0.00
2018-09-12T23:47:28.239Z,0.00
2018-09-12T23:48:28.227Z,0.00
2018-09-12T23:49:28.225Z,0.00
2018-09-12T23:50:28.207Z,0.00
2018-09-12T23:51:28.196Z,0.00
2018-09-12T23:52:28.354Z,0.00
2018-09-12T23:53:28.177Z,0.00
2018-09-12T23:54:28.166Z,0.00
2018-09-12T23:55:28.154Z,0.00
2018-09-12T23:56:28.144Z,0.00
2018-09-12T23:57:28.185Z,0.00
2018-09-12T23:58:28.127Z,0.00
2018-09-12T23:59:28.110Z,0.00
